sensor_id;sensor_type;location;lat;lon;timestamp;P1;durP1;ratioP1;P2;durP2;ratioP2
35324;SDS011;35135;47.510;19.036;2024-02-26T00:01:26;6.30;;;4.80;;
35324;SDS011;35135;47.510;19.036;2024-02-26T00:03:52;7.75;;;5.35;;
35324;SDS011;35135;47.510;19.036;2024-02-26T00:06:18;8.20;;;5.43;;
35324;SDS011;35135;47.510;19.036;2024-02-26T00:08:44;7.13;;;4.88;;
35324;SDS011;35135;47.510;19.036;2024-02-26T00:11:10;7.53;;;5.38;;
35324;SDS011;35135;47.510;19.036;2024-02-26T00:13:36;6.93;;;5.20;;
35324;SDS011;35135;47.510;19.036;2024-02-26T00:16:02;6.15;;;4.75;;
35324;SDS011;35135;47.510;19.036;2024-02-26T00:18:29;6.20;;;4.60;;
35324;SDS011;35135;47.510;19.036;2024-02-26T00:20:54;6.50;;;5.20;;
35324;SDS011;35135;47.510;19.036;2024-02-26T00:23:20;5.50;;;4.80;;
35324;SDS011;35135;47.510;19.036;2024-02-26T00:25:46;6.43;;;5.05;;
35324;SDS011;35135;47.510;19.036;2024-02-26T00:28:12;6.82;;;4.78;;
35324;SDS011;35135;47.510;19.036;2024-02-26T00:30:38;5.80;;;4.97;;
35324;SDS011;35135;47.510;19.036;2024-02-26T00:33:04;6.03;;;4.95;;
35324;SDS011;35135;47.510;19.036;2024-02-26T00:35:29;6.15;;;5.03;;
35324;SDS011;35135;47.510;19.036;2024-02-26T00:37:55;5.65;;;4.68;;
35324;SDS011;35135;47.510;19.036;2024-02-26T00:40:21;5.82;;;5.15;;
35324;SDS011;35135;47.510;19.036;2024-02-26T00:42:46;5.30;;;4.80;;
35324;SDS011;35135;47.510;19.036;2024-02-26T00:45:13;6.28;;;5.07;;
35324;SDS011;35135;47.510;19.036;2024-02-26T00:47:39;6.05;;;4.78;;
35324;SDS011;35135;47.510;19.036;2024-02-26T00:50:06;5.68;;;4.75;;
35324;SDS011;35135;47.510;19.036;2024-02-26T00:52:33;5.15;;;4.55;;
35324;SDS011;35135;47.510;19.036;2024-02-26T00:54:59;6.93;;;4.82;;
35324;SDS011;35135;47.510;19.036;2024-02-26T00:57:25;5.13;;;4.63;;
35324;SDS011;35135;47.510;19.036;2024-02-26T00:59:50;5.65;;;4.60;;
35324;SDS011;35135;47.510;19.036;2024-02-26T01:02:16;5.25;;;4.75;;
35324;SDS011;35135;47.510;19.036;2024-02-26T01:04:42;5.97;;;4.55;;
35324;SDS011;35135;47.510;19.036;2024-02-26T01:07:08;5.25;;;4.60;;
35324;SDS011;35135;47.510;19.036;2024-02-26T01:09:34;5.53;;;4.60;;
35324;SDS011;35135;47.510;19.036;2024-02-26T01:12:00;5.00;;;4.50;;
35324;SDS011;35135;47.510;19.036;2024-02-26T01:14:27;5.35;;;4.55;;
35324;SDS011;35135;47.510;19.036;2024-02-26T01:16:53;5.40;;;4.90;;
35324;SDS011;35135;47.510;19.036;2024-02-26T01:19:19;4.40;;;4.00;;
35324;SDS011;35135;47.510;19.036;2024-02-26T01:21:44;6.03;;;4.28;;
35324;SDS011;35135;47.510;19.036;2024-02-26T01:24:10;5.53;;;4.40;;
35324;SDS011;35135;47.510;19.036;2024-02-26T01:26:36;4.90;;;4.38;;
35324;SDS011;35135;47.510;19.036;2024-02-26T01:29:01;6.60;;;4.43;;
35324;SDS011;35135;47.510;19.036;2024-02-26T01:31:27;4.60;;;4.15;;
35324;SDS011;35135;47.510;19.036;2024-02-26T01:33:53;4.85;;;4.38;;
35324;SDS011;35135;47.510;19.036;2024-02-26T01:36:19;4.90;;;4.50;;
35324;SDS011;35135;47.510;19.036;2024-02-26T01:38:45;5.60;;;4.65;;
35324;SDS011;35135;47.510;19.036;2024-02-26T01:41:10;4.82;;;4.43;;
35324;SDS011;35135;47.510;19.036;2024-02-26T01:43:36;4.82;;;4.32;;
35324;SDS011;35135;47.510;19.036;2024-02-26T01:46:02;4.80;;;4.30;;
35324;SDS011;35135;47.510;19.036;2024-02-26T01:48:28;5.05;;;4.55;;
35324;SDS011;35135;47.510;19.036;2024-02-26T01:50:54;5.13;;;4.13;;
35324;SDS011;35135;47.510;19.036;2024-02-26T01:53:20;4.90;;;4.43;;
35324;SDS011;35135;47.510;19.036;2024-02-26T01:55:46;4.50;;;4.07;;
35324;SDS011;35135;47.510;19.036;2024-02-26T01:58:12;4.22;;;3.72;;
35324;SDS011;35135;47.510;19.036;2024-02-26T02:00:38;4.93;;;4.43;;
35324;SDS011;35135;47.510;19.036;2024-02-26T02:03:04;7.78;;;4.13;;
35324;SDS011;35135;47.510;19.036;2024-02-26T02:05:31;4.30;;;3.70;;
35324;SDS011;35135;47.510;19.036;2024-02-26T02:07:57;4.22;;;3.83;;
35324;SDS011;35135;47.510;19.036;2024-02-26T02:10:24;4.97;;;4.25;;
35324;SDS011;35135;47.510;19.036;2024-02-26T02:12:51;5.03;;;4.53;;
35324;SDS011;35135;47.510;19.036;2024-02-26T02:15:17;4.22;;;3.53;;
35324;SDS011;35135;47.510;19.036;2024-02-26T02:17:43;4.53;;;4.13;;
35324;SDS011;35135;47.510;19.036;2024-02-26T02:20:09;4.07;;;3.67;;
35324;SDS011;35135;47.510;19.036;2024-02-26T02:22:40;4.40;;;4.00;;
35324;SDS011;35135;47.510;19.036;2024-02-26T02:25:06;4.55;;;4.15;;
35324;SDS011;35135;47.510;19.036;2024-02-26T02:27:32;4.82;;;4.40;;
35324;SDS011;35135;47.510;19.036;2024-02-26T02:29:58;4.40;;;4.00;;
35324;SDS011;35135;47.510;19.036;2024-02-26T02:32:24;5.00;;;3.60;;
35324;SDS011;35135;47.510;19.036;2024-02-26T02:34:50;4.82;;;4.18;;
35324;SDS011;35135;47.510;19.036;2024-02-26T02:37:16;4.15;;;3.75;;
35324;SDS011;35135;47.510;19.036;2024-02-26T02:39:42;4.55;;;3.72;;
35324;SDS011;35135;47.510;19.036;2024-02-26T02:42:08;4.22;;;3.83;;
35324;SDS011;35135;47.510;19.036;2024-02-26T02:44:34;4.40;;;4.00;;
35324;SDS011;35135;47.510;19.036;2024-02-26T02:47:00;4.82;;;3.70;;
35324;SDS011;35135;47.510;19.036;2024-02-26T02:49:25;4.63;;;3.63;;
35324;SDS011;35135;47.510;19.036;2024-02-26T02:51:51;4.30;;;3.78;;
35324;SDS011;35135;47.510;19.036;2024-02-26T02:54:19;3.85;;;3.55;;
35324;SDS011;35135;47.510;19.036;2024-02-26T02:56:45;4.00;;;3.63;;
35324;SDS011;35135;47.510;19.036;2024-02-26T02:59:10;4.43;;;4.03;;
35324;SDS011;35135;47.510;19.036;2024-02-26T03:01:36;4.55;;;3.70;;
35324;SDS011;35135;47.510;19.036;2024-02-26T03:04:02;3.70;;;3.40;;
35324;SDS011;35135;47.510;19.036;2024-02-26T03:06:27;3.92;;;3.53;;
35324;SDS011;35135;47.510;19.036;2024-02-26T03:08:53;4.20;;;3.55;;
35324;SDS011;35135;47.510;19.036;2024-02-26T03:11:20;4.38;;;3.97;;
35324;SDS011;35135;47.510;19.036;2024-02-26T03:16:30;4.50;;;3.90;;
35324;SDS011;35135;47.510;19.036;2024-02-26T03:18:55;4.53;;;4.13;;
35324;SDS011;35135;47.510;19.036;2024-02-26T03:21:21;3.40;;;3.10;;
35324;SDS011;35135;47.510;19.036;2024-02-26T03:23:47;4.18;;;3.75;;
35324;SDS011;35135;47.510;19.036;2024-02-26T03:26:12;3.80;;;3.45;;
35324;SDS011;35135;47.510;19.036;2024-02-26T03:28:39;3.70;;;3.40;;
35324;SDS011;35135;47.510;19.036;2024-02-26T03:31:05;3.90;;;3.50;;
35324;SDS011;35135;47.510;19.036;2024-02-26T03:33:31;3.90;;;3.53;;
35324;SDS011;35135;47.510;19.036;2024-02-26T03:35:56;3.45;;;3.15;;
35324;SDS011;35135;47.510;19.036;2024-02-26T03:38:22;3.95;;;3.55;;
35324;SDS011;35135;47.510;19.036;2024-02-26T03:40:48;4.13;;;3.72;;
35324;SDS011;35135;47.510;19.036;2024-02-26T03:43:13;4.10;;;3.38;;
35324;SDS011;35135;47.510;19.036;2024-02-26T03:45:39;4.15;;;3.75;;
35324;SDS011;35135;47.510;19.036;2024-02-26T03:48:05;3.97;;;3.58;;
35324;SDS011;35135;47.510;19.036;2024-02-26T03:50:31;3.72;;;3.30;;
35324;SDS011;35135;47.510;19.036;2024-02-26T03:52:57;3.78;;;3.47;;
35324;SDS011;35135;47.510;19.036;2024-02-26T03:55:23;3.63;;;3.33;;
35324;SDS011;35135;47.510;19.036;2024-02-26T03:57:50;4.13;;;3.65;;
35324;SDS011;35135;47.510;19.036;2024-02-26T04:00:16;3.58;;;3.28;;
35324;SDS011;35135;47.510;19.036;2024-02-26T04:02:42;3.60;;;3.30;;
35324;SDS011;35135;47.510;19.036;2024-02-26T04:05:11;3.50;;;3.20;;
35324;SDS011;35135;47.510;19.036;2024-02-26T04:07:37;3.78;;;3.40;;
35324;SDS011;35135;47.510;19.036;2024-02-26T04:10:02;3.53;;;3.17;;
35324;SDS011;35135;47.510;19.036;2024-02-26T04:12:30;3.60;;;3.30;;
35324;SDS011;35135;47.510;19.036;2024-02-26T04:14:55;3.85;;;3.45;;
35324;SDS011;35135;47.510;19.036;2024-02-26T04:17:21;3.70;;;3.40;;
35324;SDS011;35135;47.510;19.036;2024-02-26T04:19:47;3.90;;;3.60;;
35324;SDS011;35135;47.510;19.036;2024-02-26T04:22:12;3.60;;;3.30;;
35324;SDS011;35135;47.510;19.036;2024-02-26T04:24:38;3.70;;;3.40;;
35324;SDS011;35135;47.510;19.036;2024-02-26T04:27:03;3.58;;;3.05;;
35324;SDS011;35135;47.510;19.036;2024-02-26T04:29:29;4.15;;;3.50;;
35324;SDS011;35135;47.510;19.036;2024-02-26T04:31:55;4.57;;;3.53;;
35324;SDS011;35135;47.510;19.036;2024-02-26T04:34:20;4.18;;;3.65;;
35324;SDS011;35135;47.510;19.036;2024-02-26T04:36:46;3.58;;;3.20;;
35324;SDS011;35135;47.510;19.036;2024-02-26T04:39:13;3.63;;;3.33;;
35324;SDS011;35135;47.510;19.036;2024-02-26T04:41:39;4.00;;;3.65;;
35324;SDS011;35135;47.510;19.036;2024-02-26T04:44:05;3.95;;;3.55;;
35324;SDS011;35135;47.510;19.036;2024-02-26T04:46:30;3.33;;;3.03;;
35324;SDS011;35135;47.510;19.036;2024-02-26T04:48:56;3.70;;;3.35;;
35324;SDS011;35135;47.510;19.036;2024-02-26T04:51:22;3.25;;;3.05;;
35324;SDS011;35135;47.510;19.036;2024-02-26T04:53:47;3.58;;;3.28;;
35324;SDS011;35135;47.510;19.036;2024-02-26T04:56:13;3.85;;;3.45;;
35324;SDS011;35135;47.510;19.036;2024-02-26T04:58:39;3.20;;;2.90;;
35324;SDS011;35135;47.510;19.036;2024-02-26T05:01:04;4.13;;;3.03;;
35324;SDS011;35135;47.510;19.036;2024-02-26T05:03:30;3.70;;;3.22;;
35324;SDS011;35135;47.510;19.036;2024-02-26T05:05:56;3.33;;;3.03;;
35324;SDS011;35135;47.510;19.036;2024-02-26T05:08:23;3.58;;;3.28;;
35324;SDS011;35135;47.510;19.036;2024-02-26T05:10:49;3.45;;;3.15;;
35324;SDS011;35135;47.510;19.036;2024-02-26T05:13:14;3.60;;;3.30;;
35324;SDS011;35135;47.510;19.036;2024-02-26T05:15:43;3.83;;;3.20;;
35324;SDS011;35135;47.510;19.036;2024-02-26T05:18:10;3.55;;;3.22;;
35324;SDS011;35135;47.510;19.036;2024-02-26T05:20:35;3.58;;;3.28;;
35324;SDS011;35135;47.510;19.036;2024-02-26T05:23:02;3.85;;;3.55;;
35324;SDS011;35135;47.510;19.036;2024-02-26T05:25:28;4.40;;;3.10;;
35324;SDS011;35135;47.510;19.036;2024-02-26T05:27:54;3.42;;;3.13;;
35324;SDS011;35135;47.510;19.036;2024-02-26T05:30:20;3.85;;;3.45;;
35324;SDS011;35135;47.510;19.036;2024-02-26T05:32:45;3.28;;;2.97;;
35324;SDS011;35135;47.510;19.036;2024-02-26T05:35:11;3.50;;;3.20;;
35324;SDS011;35135;47.510;19.036;2024-02-26T05:37:37;3.35;;;3.00;;
35324;SDS011;35135;47.510;19.036;2024-02-26T05:40:03;3.42;;;3.13;;
35324;SDS011;35135;47.510;19.036;2024-02-26T05:42:29;3.50;;;2.95;;
35324;SDS011;35135;47.510;19.036;2024-02-26T05:44:55;3.42;;;2.80;;
35324;SDS011;35135;47.510;19.036;2024-02-26T05:47:21;3.28;;;2.97;;
35324;SDS011;35135;47.510;19.036;2024-02-26T05:49:46;3.78;;;3.13;;
35324;SDS011;35135;47.510;19.036;2024-02-26T05:52:13;3.28;;;2.85;;
35324;SDS011;35135;47.510;19.036;2024-02-26T05:54:39;3.25;;;2.95;;
35324;SDS011;35135;47.510;19.036;2024-02-26T05:57:05;3.00;;;2.70;;
35324;SDS011;35135;47.510;19.036;2024-02-26T05:59:30;3.85;;;3.50;;
35324;SDS011;35135;47.510;19.036;2024-02-26T06:01:56;4.10;;;3.20;;
35324;SDS011;35135;47.510;19.036;2024-02-26T06:04:22;3.40;;;3.10;;
35324;SDS011;35135;47.510;19.036;2024-02-26T06:06:47;3.80;;;3.40;;
35324;SDS011;35135;47.510;19.036;2024-02-26T06:09:14;3.25;;;2.95;;
35324;SDS011;35135;47.510;19.036;2024-02-26T06:11:40;5.28;;;3.35;;
35324;SDS011;35135;47.510;19.036;2024-02-26T06:14:05;3.45;;;3.00;;
35324;SDS011;35135;47.510;19.036;2024-02-26T06:16:31;4.28;;;3.35;;
35324;SDS011;35135;47.510;19.036;2024-02-26T06:18:58;5.65;;;3.42;;
35324;SDS011;35135;47.510;19.036;2024-02-26T06:21:25;5.85;;;3.53;;
35324;SDS011;35135;47.510;19.036;2024-02-26T06:23:51;5.75;;;3.08;;
35324;SDS011;35135;47.510;19.036;2024-02-26T06:26:17;4.78;;;3.40;;
35324;SDS011;35135;47.510;19.036;2024-02-26T06:28:42;6.65;;;3.50;;
35324;SDS011;35135;47.510;19.036;2024-02-26T06:31:08;6.95;;;4.10;;
35324;SDS011;35135;47.510;19.036;2024-02-26T06:33:33;7.95;;;4.45;;
35324;SDS011;35135;47.510;19.036;2024-02-26T06:35:59;6.03;;;3.65;;
35324;SDS011;35135;47.510;19.036;2024-02-26T06:38:25;8.20;;;3.83;;
35324;SDS011;35135;47.510;19.036;2024-02-26T06:40:50;8.25;;;4.13;;
35324;SDS011;35135;47.510;19.036;2024-02-26T06:43:16;8.20;;;4.07;;
35324;SDS011;35135;47.510;19.036;2024-02-26T06:45:42;6.25;;;4.07;;
35324;SDS011;35135;47.510;19.036;2024-02-26T06:48:07;8.40;;;4.40;;
35324;SDS011;35135;47.510;19.036;2024-02-26T06:50:33;6.38;;;4.13;;
35324;SDS011;35135;47.510;19.036;2024-02-26T06:52:59;9.85;;;4.22;;
35324;SDS011;35135;47.510;19.036;2024-02-26T06:55:24;9.52;;;4.40;;
35324;SDS011;35135;47.510;19.036;2024-02-26T06:57:50;7.57;;;4.28;;
35324;SDS011;35135;47.510;19.036;2024-02-26T07:00:16;8.73;;;4.63;;
35324;SDS011;35135;47.510;19.036;2024-02-26T07:02:42;7.43;;;4.00;;
35324;SDS011;35135;47.510;19.036;2024-02-26T07:05:08;8.43;;;4.10;;
35324;SDS011;35135;47.510;19.036;2024-02-26T07:07:34;7.68;;;4.05;;
35324;SDS011;35135;47.510;19.036;2024-02-26T07:10:00;9.57;;;4.32;;
35324;SDS011;35135;47.510;19.036;2024-02-26T07:12:28;7.95;;;4.47;;
35324;SDS011;35135;47.510;19.036;2024-02-26T07:14:57;6.78;;;3.97;;
35324;SDS011;35135;47.510;19.036;2024-02-26T07:17:23;7.60;;;4.15;;
35324;SDS011;35135;47.510;19.036;2024-02-26T07:19:49;7.50;;;4.05;;
35324;SDS011;35135;47.510;19.036;2024-02-26T07:22:14;7.35;;;4.15;;
35324;SDS011;35135;47.510;19.036;2024-02-26T07:24:40;7.95;;;3.95;;
35324;SDS011;35135;47.510;19.036;2024-02-26T07:27:06;4.25;;;3.85;;
35324;SDS011;35135;47.510;19.036;2024-02-26T07:29:32;5.05;;;4.07;;
35324;SDS011;35135;47.510;19.036;2024-02-26T07:31:58;5.28;;;3.63;;
35324;SDS011;35135;47.510;19.036;2024-02-26T07:34:24;6.20;;;3.67;;
35324;SDS011;35135;47.510;19.036;2024-02-26T07:36:54;5.68;;;3.80;;
35324;SDS011;35135;47.510;19.036;2024-02-26T07:39:20;7.00;;;4.05;;
35324;SDS011;35135;47.510;19.036;2024-02-26T07:41:46;6.10;;;4.40;;
35324;SDS011;35135;47.510;19.036;2024-02-26T07:44:14;7.68;;;3.63;;
35324;SDS011;35135;47.510;19.036;2024-02-26T07:46:40;4.80;;;3.28;;
35324;SDS011;35135;47.510;19.036;2024-02-26T07:49:06;7.78;;;3.88;;
35324;SDS011;35135;47.510;19.036;2024-02-26T07:51:33;5.90;;;3.75;;
35324;SDS011;35135;47.510;19.036;2024-02-26T07:53:59;6.07;;;3.60;;
35324;SDS011;35135;47.510;19.036;2024-02-26T07:56:25;5.40;;;3.80;;
35324;SDS011;35135;47.510;19.036;2024-02-26T07:58:51;5.22;;;3.83;;
35324;SDS011;35135;47.510;19.036;2024-02-26T08:01:17;7.10;;;4.15;;
35324;SDS011;35135;47.510;19.036;2024-02-26T08:03:42;5.10;;;3.63;;
35324;SDS011;35135;47.510;19.036;2024-02-26T08:06:08;4.47;;;3.53;;
35324;SDS011;35135;47.510;19.036;2024-02-26T08:08:34;5.22;;;3.63;;
35324;SDS011;35135;47.510;19.036;2024-02-26T08:11:00;4.25;;;3.78;;
35324;SDS011;35135;47.510;19.036;2024-02-26T08:13:25;5.28;;;3.95;;
35324;SDS011;35135;47.510;19.036;2024-02-26T08:15:51;4.70;;;3.75;;
35324;SDS011;35135;47.510;19.036;2024-02-26T08:18:17;7.05;;;3.80;;
35324;SDS011;35135;47.510;19.036;2024-02-26T08:20:44;4.93;;;3.90;;
35324;SDS011;35135;47.510;19.036;2024-02-26T08:23:10;6.50;;;3.90;;
35324;SDS011;35135;47.510;19.036;2024-02-26T08:25:35;5.20;;;3.78;;
35324;SDS011;35135;47.510;19.036;2024-02-26T08:28:01;7.20;;;4.25;;
35324;SDS011;35135;47.510;19.036;2024-02-26T08:30:27;4.68;;;3.70;;
35324;SDS011;35135;47.510;19.036;2024-02-26T08:32:52;5.30;;;4.25;;
35324;SDS011;35135;47.510;19.036;2024-02-26T08:35:18;4.13;;;3.72;;
35324;SDS011;35135;47.510;19.036;2024-02-26T08:37:45;4.80;;;3.75;;
35324;SDS011;35135;47.510;19.036;2024-02-26T08:40:11;6.07;;;3.78;;
35324;SDS011;35135;47.510;19.036;2024-02-26T08:42:37;5.57;;;4.00;;
35324;SDS011;35135;47.510;19.036;2024-02-26T08:45:02;4.57;;;3.50;;
35324;SDS011;35135;47.510;19.036;2024-02-26T08:47:28;3.90;;;3.50;;
35324;SDS011;35135;47.510;19.036;2024-02-26T08:49:54;4.60;;;3.90;;
35324;SDS011;35135;47.510;19.036;2024-02-26T08:52:20;5.65;;;4.35;;
35324;SDS011;35135;47.510;19.036;2024-02-26T08:54:47;4.57;;;3.55;;
35324;SDS011;35135;47.510;19.036;2024-02-26T08:57:12;6.47;;;4.40;;
35324;SDS011;35135;47.510;19.036;2024-02-26T08:59:38;4.93;;;3.95;;
35324;SDS011;35135;47.510;19.036;2024-02-26T09:02:04;5.78;;;4.03;;
35324;SDS011;35135;47.510;19.036;2024-02-26T09:04:29;4.32;;;3.70;;
35324;SDS011;35135;47.510;19.036;2024-02-26T09:06:55;4.47;;;4.00;;
35324;SDS011;35135;47.510;19.036;2024-02-26T09:09:20;4.28;;;3.85;;
35324;SDS011;35135;47.510;19.036;2024-02-26T09:11:47;4.68;;;4.18;;
35324;SDS011;35135;47.510;19.036;2024-02-26T09:14:13;4.60;;;3.97;;
35324;SDS011;35135;47.510;19.036;2024-02-26T09:16:39;5.07;;;3.47;;
35324;SDS011;35135;47.510;19.036;2024-02-26T09:19:05;4.68;;;4.15;;
35324;SDS011;35135;47.510;19.036;2024-02-26T09:21:30;5.93;;;4.20;;
35324;SDS011;35135;47.510;19.036;2024-02-26T09:23:56;6.22;;;4.05;;
35324;SDS011;35135;47.510;19.036;2024-02-26T09:26:21;7.07;;;4.55;;
35324;SDS011;35135;47.510;19.036;2024-02-26T09:28:47;4.50;;;4.00;;
35324;SDS011;35135;47.510;19.036;2024-02-26T09:31:14;5.38;;;4.43;;
35324;SDS011;35135;47.510;19.036;2024-02-26T09:33:42;4.35;;;3.95;;
35324;SDS011;35135;47.510;19.036;2024-02-26T09:36:07;5.55;;;4.38;;
35324;SDS011;35135;47.510;19.036;2024-02-26T09:38:34;5.20;;;4.05;;
35324;SDS011;35135;47.510;19.036;2024-02-26T09:41:03;6.30;;;4.10;;
35324;SDS011;35135;47.510;19.036;2024-02-26T09:43:35;4.55;;;3.80;;
35324;SDS011;35135;47.510;19.036;2024-02-26T09:46:05;5.75;;;4.13;;
35324;SDS011;35135;47.510;19.036;2024-02-26T09:48:31;4.50;;;3.97;;
35324;SDS011;35135;47.510;19.036;2024-02-26T09:50:59;6.03;;;4.50;;
35324;SDS011;35135;47.510;19.036;2024-02-26T09:53:27;7.97;;;4.40;;
35324;SDS011;35135;47.510;19.036;2024-02-26T09:55:54;7.40;;;4.90;;
35324;SDS011;35135;47.510;19.036;2024-02-26T09:58:20;8.07;;;4.45;;
35324;SDS011;35135;47.510;19.036;2024-02-26T10:00:51;4.80;;;3.80;;
35324;SDS011;35135;47.510;19.036;2024-02-26T10:03:19;7.65;;;4.68;;
35324;SDS011;35135;47.510;19.036;2024-02-26T10:05:51;6.82;;;4.40;;
35324;SDS011;35135;47.510;19.036;2024-02-26T10:08:20;5.60;;;4.40;;
35324;SDS011;35135;47.510;19.036;2024-02-26T10:10:47;6.65;;;4.15;;
35324;SDS011;35135;47.510;19.036;2024-02-26T10:13:13;5.53;;;4.20;;
35324;SDS011;35135;47.510;19.036;2024-02-26T10:15:39;5.72;;;4.35;;
35324;SDS011;35135;47.510;19.036;2024-02-26T10:18:05;6.18;;;4.50;;
35324;SDS011;35135;47.510;19.036;2024-02-26T10:20:31;4.82;;;4.32;;
35324;SDS011;35135;47.510;19.036;2024-02-26T10:22:57;5.70;;;4.35;;
35324;SDS011;35135;47.510;19.036;2024-02-26T10:25:23;5.68;;;4.45;;
35324;SDS011;35135;47.510;19.036;2024-02-26T10:27:49;5.40;;;4.75;;
35324;SDS011;35135;47.510;19.036;2024-02-26T10:30:22;5.20;;;4.22;;
35324;SDS011;35135;47.510;19.036;2024-02-26T10:32:51;7.68;;;4.93;;
35324;SDS011;35135;47.510;19.036;2024-02-26T10:35:17;7.10;;;4.88;;
35324;SDS011;35135;47.510;19.036;2024-02-26T10:37:46;6.60;;;5.20;;
35324;SDS011;35135;47.510;19.036;2024-02-26T10:40:12;8.98;;;4.78;;
35324;SDS011;35135;47.510;19.036;2024-02-26T10:42:39;5.70;;;4.65;;
35324;SDS011;35135;47.510;19.036;2024-02-26T10:45:06;10.75;;;4.68;;
35324;SDS011;35135;47.510;19.036;2024-02-26T10:47:34;6.35;;;4.30;;
35324;SDS011;35135;47.510;19.036;2024-02-26T10:50:03;6.20;;;4.55;;
35324;SDS011;35135;47.510;19.036;2024-02-26T10:52:31;5.47;;;4.32;;
35324;SDS011;35135;47.510;19.036;2024-02-26T10:55:00;6.53;;;4.30;;
35324;SDS011;35135;47.510;19.036;2024-02-26T10:57:35;13.13;;;4.90;;
35324;SDS011;35135;47.510;19.036;2024-02-26T11:00:04;6.20;;;4.80;;
35324;SDS011;35135;47.510;19.036;2024-02-26T11:02:32;6.05;;;4.25;;
35324;SDS011;35135;47.510;19.036;2024-02-26T11:05:00;5.30;;;4.50;;
35324;SDS011;35135;47.510;19.036;2024-02-26T11:07:31;6.53;;;4.50;;
35324;SDS011;35135;47.510;19.036;2024-02-26T11:09:59;6.43;;;4.65;;
35324;SDS011;35135;47.510;19.036;2024-02-26T11:12:26;7.53;;;5.00;;
35324;SDS011;35135;47.510;19.036;2024-02-26T11:14:54;8.27;;;4.40;;
35324;SDS011;35135;47.510;19.036;2024-02-26T11:17:22;5.28;;;4.40;;
35324;SDS011;35135;47.510;19.036;2024-02-26T11:19:49;7.70;;;4.28;;
35324;SDS011;35135;47.510;19.036;2024-02-26T11:22:16;11.18;;;4.97;;
35324;SDS011;35135;47.510;19.036;2024-02-26T11:24:42;13.07;;;4.63;;
35324;SDS011;35135;47.510;19.036;2024-02-26T11:27:09;8.30;;;4.60;;
35324;SDS011;35135;47.510;19.036;2024-02-26T11:29:47;6.95;;;4.28;;
35324;SDS011;35135;47.510;19.036;2024-02-26T11:32:16;8.30;;;3.97;;
35324;SDS011;35135;47.510;19.036;2024-02-26T11:34:42;6.93;;;4.13;;
35324;SDS011;35135;47.510;19.036;2024-02-26T11:37:12;8.32;;;4.40;;
35324;SDS011;35135;47.510;19.036;2024-02-26T11:39:40;7.13;;;4.57;;
35324;SDS011;35135;47.510;19.036;2024-02-26T11:42:06;8.45;;;4.75;;
35324;SDS011;35135;47.510;19.036;2024-02-26T11:44:33;5.72;;;4.45;;
35324;SDS011;35135;47.510;19.036;2024-02-26T11:47:09;5.43;;;4.35;;
35324;SDS011;35135;47.510;19.036;2024-02-26T11:49:35;6.28;;;3.95;;
35324;SDS011;35135;47.510;19.036;2024-02-26T11:52:04;9.10;;;4.32;;
35324;SDS011;35135;47.510;19.036;2024-02-26T11:59:50;10.88;;;4.57;;
35324;SDS011;35135;47.510;19.036;2024-02-26T12:05:21;26.45;;;5.00;;
35324;SDS011;35135;47.510;19.036;2024-02-26T12:12:54;5.10;;;4.03;;
35324;SDS011;35135;47.510;19.036;2024-02-26T12:15:23;5.63;;;4.45;;
35324;SDS011;35135;47.510;19.036;2024-02-26T12:17:49;6.30;;;4.38;;
35324;SDS011;35135;47.510;19.036;2024-02-26T12:20:16;8.43;;;4.50;;
35324;SDS011;35135;47.510;19.036;2024-02-26T12:22:45;12.48;;;4.32;;
35324;SDS011;35135;47.510;19.036;2024-02-26T12:25:15;7.13;;;4.22;;
35324;SDS011;35135;47.510;19.036;2024-02-26T12:27:41;7.68;;;4.50;;
35324;SDS011;35135;47.510;19.036;2024-02-26T12:30:07;10.10;;;3.90;;
35324;SDS011;35135;47.510;19.036;2024-02-26T12:32:34;8.63;;;4.18;;
35324;SDS011;35135;47.510;19.036;2024-02-26T12:35:00;9.50;;;4.32;;
35324;SDS011;35135;47.510;19.036;2024-02-26T12:37:28;5.43;;;4.45;;
35324;SDS011;35135;47.510;19.036;2024-02-26T12:39:54;4.82;;;3.75;;
35324;SDS011;35135;47.510;19.036;2024-02-26T12:42:20;6.80;;;3.83;;
35324;SDS011;35135;47.510;19.036;2024-02-26T12:44:46;4.65;;;4.00;;
35324;SDS011;35135;47.510;19.036;2024-02-26T12:47:12;6.68;;;4.40;;
35324;SDS011;35135;47.510;19.036;2024-02-26T12:49:42;4.97;;;3.67;;
35324;SDS011;35135;47.510;19.036;2024-02-26T12:52:09;4.50;;;3.95;;
35324;SDS011;35135;47.510;19.036;2024-02-26T12:54:35;5.47;;;4.10;;
35324;SDS011;35135;47.510;19.036;2024-02-26T12:57:04;4.20;;;3.80;;
35324;SDS011;35135;47.510;19.036;2024-02-26T12:59:32;6.07;;;3.85;;
35324;SDS011;35135;47.510;19.036;2024-02-26T13:01:59;4.35;;;3.95;;
35324;SDS011;35135;47.510;19.036;2024-02-26T13:04:27;4.32;;;3.33;;
35324;SDS011;35135;47.510;19.036;2024-02-26T13:06:54;6.72;;;3.65;;
35324;SDS011;35135;47.510;19.036;2024-02-26T13:09:20;4.50;;;3.85;;
35324;SDS011;35135;47.510;19.036;2024-02-26T13:11:53;5.30;;;3.15;;
35324;SDS011;35135;47.510;19.036;2024-02-26T13:14:22;4.65;;;3.00;;
35324;SDS011;35135;47.510;19.036;2024-02-26T13:16:55;4.53;;;3.70;;
35324;SDS011;35135;47.510;19.036;2024-02-26T13:19:21;4.50;;;3.80;;
35324;SDS011;35135;47.510;19.036;2024-02-26T13:21:47;6.10;;;3.65;;
35324;SDS011;35135;47.510;19.036;2024-02-26T13:24:13;4.57;;;3.60;;
35324;SDS011;35135;47.510;19.036;2024-02-26T13:26:40;5.68;;;3.53;;
35324;SDS011;35135;47.510;19.036;2024-02-26T13:29:07;5.32;;;3.20;;
35324;SDS011;35135;47.510;19.036;2024-02-26T13:31:39;9.35;;;3.47;;
35324;SDS011;35135;47.510;19.036;2024-02-26T13:34:05;3.90;;;3.50;;
35324;SDS011;35135;47.510;19.036;2024-02-26T13:36:31;6.50;;;3.60;;
35324;SDS011;35135;47.510;19.036;2024-02-26T13:38:57;4.75;;;3.53;;
35324;SDS011;35135;47.510;19.036;2024-02-26T13:41:22;7.22;;;3.60;;
35324;SDS011;35135;47.510;19.036;2024-02-26T13:43:50;9.00;;;4.57;;
35324;SDS011;35135;47.510;19.036;2024-02-26T13:46:16;10.93;;;3.95;;
35324;SDS011;35135;47.510;19.036;2024-02-26T13:48:42;4.47;;;3.10;;
35324;SDS011;35135;47.510;19.036;2024-02-26T13:51:08;5.72;;;3.95;;
35324;SDS011;35135;47.510;19.036;2024-02-26T13:53:34;5.82;;;3.42;;
35324;SDS011;35135;47.510;19.036;2024-02-26T13:56:00;12.48;;;3.50;;
35324;SDS011;35135;47.510;19.036;2024-02-26T13:58:26;5.65;;;3.15;;
35324;SDS011;35135;47.510;19.036;2024-02-26T14:00:55;5.15;;;3.33;;
35324;SDS011;35135;47.510;19.036;2024-02-26T14:03:21;8.27;;;3.75;;
35324;SDS011;35135;47.510;19.036;2024-02-26T14:05:47;7.25;;;3.30;;
35324;SDS011;35135;47.510;19.036;2024-02-26T14:08:14;5.43;;;3.22;;
35324;SDS011;35135;47.510;19.036;2024-02-26T14:10:40;3.58;;;3.08;;
35324;SDS011;35135;47.510;19.036;2024-02-26T14:13:06;6.35;;;3.28;;
35324;SDS011;35135;47.510;19.036;2024-02-26T14:15:32;4.18;;;3.30;;
35324;SDS011;35135;47.510;19.036;2024-02-26T14:18:00;3.47;;;3.08;;
35324;SDS011;35135;47.510;19.036;2024-02-26T14:20:31;5.93;;;3.53;;
35324;SDS011;35135;47.510;19.036;2024-02-26T14:22:56;4.00;;;3.03;;
35324;SDS011;35135;47.510;19.036;2024-02-26T14:25:22;7.68;;;3.22;;
35324;SDS011;35135;47.510;19.036;2024-02-26T14:27:49;3.17;;;2.88;;
35324;SDS011;35135;47.510;19.036;2024-02-26T14:30:15;4.50;;;3.50;;
35324;SDS011;35135;47.510;19.036;2024-02-26T14:32:41;3.70;;;2.83;;
35324;SDS011;35135;47.510;19.036;2024-02-26T14:35:07;7.20;;;3.35;;
35324;SDS011;35135;47.510;19.036;2024-02-26T14:37:34;6.45;;;2.90;;
35324;SDS011;35135;47.510;19.036;2024-02-26T14:40:01;4.38;;;3.05;;
35324;SDS011;35135;47.510;19.036;2024-02-26T14:42:30;3.72;;;3.25;;
35324;SDS011;35135;47.510;19.036;2024-02-26T14:44:56;3.28;;;2.95;;